<?xml version="1.0" encoding="UTF-8" standalone="no" ?>
<gpx xmlns="http://www.topografix.com/GPX/1/1" xmlns:xsi="http://www.w3.org/2001/XMLSchema-instance" xsi:schemaLocation="http://www.topografix.com/GPX/1/1 http://www.topografix.com/GPX/1/1/gpx.xsd" version="1.1" creator="VisuGPX - https://www.visugpx.com">
  <metadata>
    <name>Piste0001</name>
    <desc><![CDATA[rtgrertgr]]></desc>
  </metadata>
  <trk>
    <name><![CDATA[Piste0001]]></name>
    <trkseg>
      <trkpt lat="47.9292" lon="7.11475">
        <ele>668</ele>
        <time>2010-12-23T10:17:28.000Z</time>
      </trkpt>
      <trkpt lat="47.92963" lon="7.11499">
        <ele>664</ele>
        <time>2010-12-23T10:27:50.000Z</time>
      </trkpt>
      <trkpt lat="47.92964" lon="7.115">
        <ele>664</ele>
        <time>2010-12-23T10:27:51.000Z</time>
      </trkpt>
      <trkpt lat="47.93007" lon="7.11522">
        <ele>677</ele>
        <time>2010-12-23T10:28:33.000Z</time>
      </trkpt>
      <trkpt lat="47.93008" lon="7.11523">
        <ele>677</ele>
        <time>2010-12-23T10:28:34.000Z</time>
      </trkpt>
      <trkpt lat="47.93052" lon="7.11541">
        <ele>686</ele>
        <time>2010-12-23T10:29:15.000Z</time>
      </trkpt>
      <trkpt lat="47.93053" lon="7.11542">
        <ele>686</ele>
        <time>2010-12-23T10:29:16.000Z</time>
      </trkpt>
      <trkpt lat="47.93097" lon="7.11562">
        <ele>673</ele>
        <time>2010-12-23T10:29:51.000Z</time>
      </trkpt>
      <trkpt lat="47.93098" lon="7.11562">
        <ele>673</ele>
        <time>2010-12-23T10:29:52.000Z</time>
      </trkpt>
      <trkpt lat="47.93142" lon="7.11571">
        <ele>676</ele>
        <time>2010-12-23T10:30:28.000Z</time>
      </trkpt>
      <trkpt lat="47.93143" lon="7.11571">
        <ele>676</ele>
        <time>2010-12-23T10:30:29.000Z</time>
      </trkpt>
      <trkpt lat="47.93189" lon="7.11566">
        <ele>670</ele>
        <time>2010-12-23T10:31:04.000Z</time>
      </trkpt>
      <trkpt lat="47.93191" lon="7.11566">
        <ele>671</ele>
        <time>2010-12-23T10:31:05.000Z</time>
      </trkpt>
      <trkpt lat="47.93236" lon="7.11561">
        <ele>664</ele>
        <time>2010-12-23T10:31:34.000Z</time>
      </trkpt>
      <trkpt lat="47.93238" lon="7.11561">
        <ele>664</ele>
        <time>2010-12-23T10:31:35.000Z</time>
      </trkpt>
      <trkpt lat="47.93284" lon="7.11567">
        <ele>671</ele>
        <time>2010-12-23T10:32:10.000Z</time>
      </trkpt>
      <trkpt lat="47.93285" lon="7.11567">
        <ele>671</ele>
        <time>2010-12-23T10:32:11.000Z</time>
      </trkpt>
      <trkpt lat="47.93331" lon="7.11568">
        <ele>671</ele>
        <time>2010-12-23T10:32:55.000Z</time>
      </trkpt>
      <trkpt lat="47.93332" lon="7.11568">
        <ele>671</ele>
        <time>2010-12-23T10:32:56.000Z</time>
      </trkpt>
      <trkpt lat="47.93377" lon="7.11582">
        <ele>678</ele>
        <time>2010-12-23T10:33:38.000Z</time>
      </trkpt>
      <trkpt lat="47.93378" lon="7.11583">
        <ele>678</ele>
        <time>2010-12-23T10:33:39.000Z</time>
      </trkpt>
      <trkpt lat="47.93423" lon="7.11584">
        <ele>689</ele>
        <time>2010-12-23T10:34:23.000Z</time>
      </trkpt>
      <trkpt lat="47.93424" lon="7.11584">
        <ele>689</ele>
        <time>2010-12-23T10:34:24.000Z</time>
      </trkpt>
      <trkpt lat="47.93466" lon="7.11558">
        <ele>703</ele>
        <time>2010-12-23T10:35:19.000Z</time>
      </trkpt>
      <trkpt lat="47.93467" lon="7.11558">
        <ele>703</ele>
        <time>2010-12-23T10:35:20.000Z</time>
      </trkpt>
      <trkpt lat="47.93512" lon="7.11551">
        <ele>710</ele>
        <time>2010-12-23T10:36:21.000Z</time>
      </trkpt>
      <trkpt lat="47.93513" lon="7.11551">
        <ele>711</ele>
        <time>2010-12-23T10:36:22.000Z</time>
      </trkpt>
      <trkpt lat="47.93549" lon="7.11508">
        <ele>723</ele>
        <time>2010-12-23T10:37:28.000Z</time>
      </trkpt>
      <trkpt lat="47.9355" lon="7.11508">
        <ele>723</ele>
        <time>2010-12-23T10:37:29.000Z</time>
      </trkpt>
      <trkpt lat="47.93595" lon="7.11503">
        <ele>730</ele>
        <time>2010-12-23T10:38:53.000Z</time>
      </trkpt>
      <trkpt lat="47.93595" lon="7.11502">
        <ele>730</ele>
        <time>2010-12-23T10:38:54.000Z</time>
      </trkpt>
      <trkpt lat="47.93597" lon="7.11435">
        <ele>736</ele>
        <time>2010-12-23T10:40:18.000Z</time>
      </trkpt>
      <trkpt lat="47.93597" lon="7.11431">
        <ele>735</ele>
        <time>2010-12-23T10:40:19.000Z</time>
      </trkpt>
      <trkpt lat="47.9357" lon="7.11376">
        <ele>757</ele>
        <time>2010-12-23T10:43:24.000Z</time>
      </trkpt>
      <trkpt lat="47.9357" lon="7.11376">
        <ele>757</ele>
        <time>2010-12-23T10:43:25.000Z</time>
      </trkpt>
      <trkpt lat="47.93534" lon="7.11334">
        <ele>762</ele>
        <time>2010-12-23T10:45:07.000Z</time>
      </trkpt>
      <trkpt lat="47.93534" lon="7.11333">
        <ele>763</ele>
        <time>2010-12-23T10:45:08.000Z</time>
      </trkpt>
      <trkpt lat="47.93502" lon="7.11285">
        <ele>777</ele>
        <time>2010-12-23T10:46:20.000Z</time>
      </trkpt>
      <trkpt lat="47.93501" lon="7.11285">
        <ele>777</ele>
        <time>2010-12-23T10:46:21.000Z</time>
      </trkpt>
      <trkpt lat="47.93458" lon="7.11265">
        <ele>785</ele>
        <time>2010-12-23T10:47:20.000Z</time>
      </trkpt>
      <trkpt lat="47.93457" lon="7.11264">
        <ele>785</ele>
        <time>2010-12-23T10:47:21.000Z</time>
      </trkpt>
      <trkpt lat="47.93417" lon="7.11231">
        <ele>787</ele>
        <time>2010-12-23T10:48:39.000Z</time>
      </trkpt>
      <trkpt lat="47.93416" lon="7.11231">
        <ele>788</ele>
        <time>2010-12-23T10:48:40.000Z</time>
      </trkpt>
      <trkpt lat="47.93372" lon="7.11213">
        <ele>804</ele>
        <time>2010-12-23T10:49:40.000Z</time>
      </trkpt>
      <trkpt lat="47.93371" lon="7.11213">
        <ele>804</ele>
        <time>2010-12-23T10:49:41.000Z</time>
      </trkpt>
      <trkpt lat="47.93336" lon="7.1117">
        <ele>816</ele>
        <time>2010-12-23T10:51:03.000Z</time>
      </trkpt>
      <trkpt lat="47.93336" lon="7.11168">
        <ele>817</ele>
        <time>2010-12-23T10:51:04.000Z</time>
      </trkpt>
      <trkpt lat="47.93294" lon="7.11144">
        <ele>827</ele>
        <time>2010-12-23T10:52:26.000Z</time>
      </trkpt>
      <trkpt lat="47.93293" lon="7.11144">
        <ele>827</ele>
        <time>2010-12-23T10:52:27.000Z</time>
      </trkpt>
      <trkpt lat="47.93248" lon="7.11135">
        <ele>837</ele>
        <time>2010-12-23T10:53:05.000Z</time>
      </trkpt>
      <trkpt lat="47.93246" lon="7.11133">
        <ele>838</ele>
        <time>2010-12-23T10:53:06.000Z</time>
      </trkpt>
      <trkpt lat="47.93201" lon="7.11123">
        <ele>834</ele>
        <time>2010-12-23T10:53:54.000Z</time>
      </trkpt>
      <trkpt lat="47.932" lon="7.11124">
        <ele>834</ele>
        <time>2010-12-23T10:53:55.000Z</time>
      </trkpt>
      <trkpt lat="47.93168" lon="7.11074">
        <ele>843</ele>
        <time>2010-12-23T10:54:42.000Z</time>
      </trkpt>
      <trkpt lat="47.93168" lon="7.11073">
        <ele>842</ele>
        <time>2010-12-23T10:54:43.000Z</time>
      </trkpt>
      <trkpt lat="47.93148" lon="7.11013">
        <ele>850</ele>
        <time>2010-12-23T10:55:24.000Z</time>
      </trkpt>
      <trkpt lat="47.93147" lon="7.11011">
        <ele>850</ele>
        <time>2010-12-23T10:55:25.000Z</time>
      </trkpt>
      <trkpt lat="47.93121" lon="7.10954">
        <ele>840</ele>
        <time>2010-12-23T10:56:08.000Z</time>
      </trkpt>
      <trkpt lat="47.9312" lon="7.10953">
        <ele>840</ele>
        <time>2010-12-23T10:56:09.000Z</time>
      </trkpt>
      <trkpt lat="47.93085" lon="7.10907">
        <ele>868</ele>
        <time>2010-12-23T10:56:35.000Z</time>
      </trkpt>
      <trkpt lat="47.93084" lon="7.10905">
        <ele>869</ele>
        <time>2010-12-23T10:56:36.000Z</time>
      </trkpt>
      <trkpt lat="47.93054" lon="7.10853">
        <ele>855</ele>
        <time>2010-12-23T10:57:30.000Z</time>
      </trkpt>
      <trkpt lat="47.93053" lon="7.10853">
        <ele>855</ele>
        <time>2010-12-23T10:57:31.000Z</time>
      </trkpt>
      <trkpt lat="47.93087" lon="7.10898">
        <ele>853</ele>
        <time>2010-12-23T10:59:03.000Z</time>
      </trkpt>
      <trkpt lat="47.93088" lon="7.10898">
        <ele>852</ele>
        <time>2010-12-23T10:59:04.000Z</time>
      </trkpt>
      <trkpt lat="47.9306" lon="7.10845">
        <ele>846</ele>
        <time>2010-12-23T10:59:57.000Z</time>
      </trkpt>
      <trkpt lat="47.93059" lon="7.10844">
        <ele>846</ele>
        <time>2010-12-23T10:59:58.000Z</time>
      </trkpt>
      <trkpt lat="47.93017" lon="7.10818">
        <ele>858</ele>
        <time>2010-12-23T11:00:39.000Z</time>
      </trkpt>
      <trkpt lat="47.93017" lon="7.10817">
        <ele>858</ele>
        <time>2010-12-23T11:00:40.000Z</time>
      </trkpt>
      <trkpt lat="47.92988" lon="7.10763">
        <ele>857</ele>
        <time>2010-12-23T11:01:26.000Z</time>
      </trkpt>
      <trkpt lat="47.92987" lon="7.10761">
        <ele>857</ele>
        <time>2010-12-23T11:01:27.000Z</time>
      </trkpt>
      <trkpt lat="47.9295" lon="7.10713">
        <ele>868</ele>
        <time>2010-12-23T11:02:10.000Z</time>
      </trkpt>
      <trkpt lat="47.92949" lon="7.10712">
        <ele>868</ele>
        <time>2010-12-23T11:02:11.000Z</time>
      </trkpt>
      <trkpt lat="47.92904" lon="7.10697">
        <ele>877</ele>
        <time>2010-12-23T11:02:54.000Z</time>
      </trkpt>
      <trkpt lat="47.92903" lon="7.10697">
        <ele>877</ele>
        <time>2010-12-23T11:02:55.000Z</time>
      </trkpt>
      <trkpt lat="47.92881" lon="7.10638">
        <ele>895</ele>
        <time>2010-12-23T11:04:00.000Z</time>
      </trkpt>
      <trkpt lat="47.92881" lon="7.10637">
        <ele>895</ele>
        <time>2010-12-23T11:04:01.000Z</time>
      </trkpt>
      <trkpt lat="47.92842" lon="7.10595">
        <ele>888</ele>
        <time>2010-12-23T11:05:00.000Z</time>
      </trkpt>
      <trkpt lat="47.92842" lon="7.10595">
        <ele>889</ele>
        <time>2010-12-23T11:05:01.000Z</time>
      </trkpt>
      <trkpt lat="47.92807" lon="7.10551">
        <ele>889</ele>
        <time>2010-12-23T11:05:59.000Z</time>
      </trkpt>
      <trkpt lat="47.92804" lon="7.10547">
        <ele>889</ele>
        <time>2010-12-23T11:06:00.000Z</time>
      </trkpt>
      <trkpt lat="47.9276" lon="7.10532">
        <ele>914</ele>
        <time>2010-12-23T11:07:18.000Z</time>
      </trkpt>
      <trkpt lat="47.9276" lon="7.10532">
        <ele>914</ele>
        <time>2010-12-23T11:07:19.000Z</time>
      </trkpt>
      <trkpt lat="47.92714" lon="7.10516">
        <ele>907</ele>
        <time>2010-12-23T11:08:20.000Z</time>
      </trkpt>
      <trkpt lat="47.92713" lon="7.10516">
        <ele>907</ele>
        <time>2010-12-23T11:08:21.000Z</time>
      </trkpt>
      <trkpt lat="47.92671" lon="7.10491">
        <ele>920</ele>
        <time>2010-12-23T11:09:30.000Z</time>
      </trkpt>
      <trkpt lat="47.9267" lon="7.1049">
        <ele>920</ele>
        <time>2010-12-23T11:09:31.000Z</time>
      </trkpt>
      <trkpt lat="47.92629" lon="7.1046">
        <ele>942</ele>
        <time>2010-12-23T11:10:38.000Z</time>
      </trkpt>
      <trkpt lat="47.92628" lon="7.10459">
        <ele>942</ele>
        <time>2010-12-23T11:10:39.000Z</time>
      </trkpt>
      <trkpt lat="47.92591" lon="7.1042">
        <ele>956</ele>
        <time>2010-12-23T11:12:36.000Z</time>
      </trkpt>
      <trkpt lat="47.92557" lon="7.10375">
        <ele>951</ele>
        <time>2010-12-23T11:15:42.000Z</time>
      </trkpt>
      <trkpt lat="47.92557" lon="7.10375">
        <ele>951</ele>
        <time>2010-12-23T11:15:43.000Z</time>
      </trkpt>
      <trkpt lat="47.92527" lon="7.10326">
        <ele>959</ele>
        <time>2010-12-23T11:16:59.000Z</time>
      </trkpt>
      <trkpt lat="47.92527" lon="7.10326">
        <ele>959</ele>
        <time>2010-12-23T11:17:00.000Z</time>
      </trkpt>
      <trkpt lat="47.92493" lon="7.1028">
        <ele>971</ele>
        <time>2010-12-23T11:18:28.000Z</time>
      </trkpt>
      <trkpt lat="47.92493" lon="7.1028">
        <ele>971</ele>
        <time>2010-12-23T11:18:29.000Z</time>
      </trkpt>
      <trkpt lat="47.92454" lon="7.10246">
        <ele>973</ele>
        <time>2010-12-23T11:21:25.000Z</time>
      </trkpt>
      <trkpt lat="47.92453" lon="7.10246">
        <ele>973</ele>
        <time>2010-12-23T11:21:26.000Z</time>
      </trkpt>
      <trkpt lat="47.92411" lon="7.10271">
        <ele>974</ele>
        <time>2010-12-23T11:22:18.000Z</time>
      </trkpt>
      <trkpt lat="47.9241" lon="7.10271">
        <ele>973</ele>
        <time>2010-12-23T11:22:19.000Z</time>
      </trkpt>
      <trkpt lat="47.92365" lon="7.10274">
        <ele>984</ele>
        <time>2010-12-23T11:23:26.000Z</time>
      </trkpt>
      <trkpt lat="47.92365" lon="7.10274">
        <ele>984</ele>
        <time>2010-12-23T11:23:27.000Z</time>
      </trkpt>
      <trkpt lat="47.92348" lon="7.10211">
        <ele>1000</ele>
        <time>2010-12-23T11:25:00.000Z</time>
      </trkpt>
      <trkpt lat="47.92348" lon="7.1021">
        <ele>1000</ele>
        <time>2010-12-23T11:25:01.000Z</time>
      </trkpt>
      <trkpt lat="47.92305" lon="7.10191">
        <ele>1021</ele>
        <time>2010-12-23T11:26:51.000Z</time>
      </trkpt>
      <trkpt lat="47.92305" lon="7.10191">
        <ele>1021</ele>
        <time>2010-12-23T11:26:52.000Z</time>
      </trkpt>
      <trkpt lat="47.92266" lon="7.10156">
        <ele>1048</ele>
        <time>2010-12-23T11:29:13.000Z</time>
      </trkpt>
      <trkpt lat="47.92266" lon="7.10155">
        <ele>1048</ele>
        <time>2010-12-23T11:29:14.000Z</time>
      </trkpt>
      <trkpt lat="47.9222" lon="7.10157">
        <ele>1073</ele>
        <time>2010-12-23T11:31:10.000Z</time>
      </trkpt>
      <trkpt lat="47.9222" lon="7.10157">
        <ele>1073</ele>
        <time>2010-12-23T11:31:11.000Z</time>
      </trkpt>
      <trkpt lat="47.92175" lon="7.10157">
        <ele>1089</ele>
        <time>2010-12-23T11:32:25.000Z</time>
      </trkpt>
      <trkpt lat="47.92174" lon="7.10157">
        <ele>1090</ele>
        <time>2010-12-23T11:32:26.000Z</time>
      </trkpt>
      <trkpt lat="47.9213" lon="7.10139">
        <ele>1102</ele>
        <time>2010-12-23T11:34:02.000Z</time>
      </trkpt>
      <trkpt lat="47.9213" lon="7.10139">
        <ele>1102</ele>
        <time>2010-12-23T11:34:03.000Z</time>
      </trkpt>
      <trkpt lat="47.92085" lon="7.10126">
        <ele>1114</ele>
        <time>2010-12-23T11:35:19.000Z</time>
      </trkpt>
      <trkpt lat="47.92084" lon="7.10126">
        <ele>1114</ele>
        <time>2010-12-23T11:35:20.000Z</time>
      </trkpt>
      <trkpt lat="47.92039" lon="7.10136">
        <ele>1123</ele>
        <time>2010-12-23T11:36:41.000Z</time>
      </trkpt>
      <trkpt lat="47.92038" lon="7.10136">
        <ele>1123</ele>
        <time>2010-12-23T11:36:42.000Z</time>
      </trkpt>
      <trkpt lat="47.91999" lon="7.10169">
        <ele>1131</ele>
        <time>2010-12-23T11:37:54.000Z</time>
      </trkpt>
      <trkpt lat="47.91998" lon="7.1017">
        <ele>1131</ele>
        <time>2010-12-23T11:37:55.000Z</time>
      </trkpt>
      <trkpt lat="47.91955" lon="7.10189">
        <ele>1141</ele>
        <time>2010-12-23T11:39:07.000Z</time>
      </trkpt>
      <trkpt lat="47.91954" lon="7.10189">
        <ele>1141</ele>
        <time>2010-12-23T11:39:08.000Z</time>
      </trkpt>
      <trkpt lat="47.91911" lon="7.10206">
        <ele>1157</ele>
        <time>2010-12-23T11:41:18.000Z</time>
      </trkpt>
      <trkpt lat="47.9191" lon="7.10206">
        <ele>1157</ele>
        <time>2010-12-23T11:41:19.000Z</time>
      </trkpt>
      <trkpt lat="47.91865" lon="7.10216">
        <ele>1170</ele>
        <time>2010-12-23T11:43:08.000Z</time>
      </trkpt>
      <trkpt lat="47.91865" lon="7.10216">
        <ele>1170</ele>
        <time>2010-12-23T11:43:09.000Z</time>
      </trkpt>
      <trkpt lat="47.91824" lon="7.10247">
        <ele>1185</ele>
        <time>2010-12-23T11:44:32.000Z</time>
      </trkpt>
      <trkpt lat="47.91824" lon="7.10247">
        <ele>1185</ele>
        <time>2010-12-23T11:44:33.000Z</time>
      </trkpt>
      <trkpt lat="47.91782" lon="7.10272">
        <ele>1197</ele>
        <time>2010-12-23T11:46:16.000Z</time>
      </trkpt>
      <trkpt lat="47.91781" lon="7.10272">
        <ele>1197</ele>
        <time>2010-12-23T11:46:17.000Z</time>
      </trkpt>
      <trkpt lat="47.91737" lon="7.10287">
        <ele>1204</ele>
        <time>2010-12-23T11:47:43.000Z</time>
      </trkpt>
      <trkpt lat="47.91737" lon="7.10287">
        <ele>1204</ele>
        <time>2010-12-23T11:47:44.000Z</time>
      </trkpt>
      <trkpt lat="47.91697" lon="7.10318">
        <ele>1216</ele>
        <time>2010-12-23T11:52:06.000Z</time>
      </trkpt>
      <trkpt lat="47.91696" lon="7.10318">
        <ele>1217</ele>
        <time>2010-12-23T11:52:07.000Z</time>
      </trkpt>
      <trkpt lat="47.91658" lon="7.10356">
        <ele>1222</ele>
        <time>2010-12-23T11:53:08.000Z</time>
      </trkpt>
      <trkpt lat="47.91658" lon="7.10357">
        <ele>1222</ele>
        <time>2010-12-23T11:53:09.000Z</time>
      </trkpt>
      <trkpt lat="47.91616" lon="7.10384">
        <ele>1226</ele>
        <time>2010-12-23T11:54:32.000Z</time>
      </trkpt>
      <trkpt lat="47.91615" lon="7.10385">
        <ele>1226</ele>
        <time>2010-12-23T11:54:33.000Z</time>
      </trkpt>
      <trkpt lat="47.91573" lon="7.10409">
        <ele>1229</ele>
        <time>2010-12-23T11:57:21.000Z</time>
      </trkpt>
      <trkpt lat="47.91572" lon="7.1041">
        <ele>1229</ele>
        <time>2010-12-23T11:57:22.000Z</time>
      </trkpt>
      <trkpt lat="47.91529" lon="7.10432">
        <ele>1229</ele>
        <time>2010-12-23T11:58:11.000Z</time>
      </trkpt>
      <trkpt lat="47.91528" lon="7.10433">
        <ele>1229</ele>
        <time>2010-12-23T11:58:12.000Z</time>
      </trkpt>
      <trkpt lat="47.91487" lon="7.1046">
        <ele>1229</ele>
        <time>2010-12-23T11:58:56.000Z</time>
      </trkpt>
      <trkpt lat="47.91486" lon="7.10461">
        <ele>1229</ele>
        <time>2010-12-23T11:58:57.000Z</time>
      </trkpt>
      <trkpt lat="47.91442" lon="7.10475">
        <ele>1235</ele>
        <time>2010-12-23T11:59:43.000Z</time>
      </trkpt>
      <trkpt lat="47.91441" lon="7.10475">
        <ele>1235</ele>
        <time>2010-12-23T11:59:44.000Z</time>
      </trkpt>
      <trkpt lat="47.91396" lon="7.10489">
        <ele>1233</ele>
        <time>2010-12-23T12:00:41.000Z</time>
      </trkpt>
      <trkpt lat="47.91395" lon="7.10489">
        <ele>1233</ele>
        <time>2010-12-23T12:00:42.000Z</time>
      </trkpt>
      <trkpt lat="47.91351" lon="7.10507">
        <ele>1236</ele>
        <time>2010-12-23T12:01:30.000Z</time>
      </trkpt>
      <trkpt lat="47.9135" lon="7.10508">
        <ele>1236</ele>
        <time>2010-12-23T12:01:31.000Z</time>
      </trkpt>
      <trkpt lat="47.91306" lon="7.10521">
        <ele>1242</ele>
        <time>2010-12-23T12:02:21.000Z</time>
      </trkpt>
      <trkpt lat="47.91305" lon="7.10521">
        <ele>1242</ele>
        <time>2010-12-23T12:02:22.000Z</time>
      </trkpt>
      <trkpt lat="47.91264" lon="7.10493">
        <ele>1242</ele>
        <time>2010-12-23T12:03:26.000Z</time>
      </trkpt>
      <trkpt lat="47.91263" lon="7.10493">
        <ele>1242</ele>
        <time>2010-12-23T12:03:27.000Z</time>
      </trkpt>
      <trkpt lat="47.91218" lon="7.10499">
        <ele>1254</ele>
        <time>2010-12-23T12:04:14.000Z</time>
      </trkpt>
      <trkpt lat="47.91217" lon="7.105">
        <ele>1254</ele>
        <time>2010-12-23T12:04:15.000Z</time>
      </trkpt>
      <trkpt lat="47.91173" lon="7.10514">
        <ele>1259</ele>
        <time>2010-12-23T12:05:05.000Z</time>
      </trkpt>
      <trkpt lat="47.91172" lon="7.10514">
        <ele>1259</ele>
        <time>2010-12-23T12:05:06.000Z</time>
      </trkpt>
      <trkpt lat="47.91133" lon="7.1055">
        <ele>1261</ele>
        <time>2010-12-23T12:06:39.000Z</time>
      </trkpt>
      <trkpt lat="47.91132" lon="7.1055">
        <ele>1261</ele>
        <time>2010-12-23T12:06:40.000Z</time>
      </trkpt>
      <trkpt lat="47.91087" lon="7.1056">
        <ele>1275</ele>
        <time>2010-12-23T12:08:00.000Z</time>
      </trkpt>
      <trkpt lat="47.91087" lon="7.1056">
        <ele>1275</ele>
        <time>2010-12-23T12:08:01.000Z</time>
      </trkpt>
      <trkpt lat="47.91042" lon="7.10567">
        <ele>1286</ele>
        <time>2010-12-23T12:09:05.000Z</time>
      </trkpt>
      <trkpt lat="47.91041" lon="7.10568">
        <ele>1287</ele>
        <time>2010-12-23T12:09:06.000Z</time>
      </trkpt>
      <trkpt lat="47.90995" lon="7.10567">
        <ele>1299</ele>
        <time>2010-12-23T12:10:15.000Z</time>
      </trkpt>
      <trkpt lat="47.90995" lon="7.10567">
        <ele>1299</ele>
        <time>2010-12-23T12:10:16.000Z</time>
      </trkpt>
      <trkpt lat="47.9095" lon="7.1057">
        <ele>1307</ele>
        <time>2010-12-23T12:11:22.000Z</time>
      </trkpt>
      <trkpt lat="47.90949" lon="7.1057">
        <ele>1307</ele>
        <time>2010-12-23T12:11:23.000Z</time>
      </trkpt>
      <trkpt lat="47.90904" lon="7.10582">
        <ele>1313</ele>
        <time>2010-12-23T12:12:27.000Z</time>
      </trkpt>
      <trkpt lat="47.90903" lon="7.10582">
        <ele>1313</ele>
        <time>2010-12-23T12:12:28.000Z</time>
      </trkpt>
      <trkpt lat="47.90858" lon="7.10583">
        <ele>1325</ele>
        <time>2010-12-23T12:13:32.000Z</time>
      </trkpt>
      <trkpt lat="47.90857" lon="7.10583">
        <ele>1325</ele>
        <time>2010-12-23T12:13:33.000Z</time>
      </trkpt>
      <trkpt lat="47.90812" lon="7.10583">
        <ele>1332</ele>
        <time>2010-12-23T12:14:26.000Z</time>
      </trkpt>
      <trkpt lat="47.90811" lon="7.10583">
        <ele>1332</ele>
        <time>2010-12-23T12:14:27.000Z</time>
      </trkpt>
      <trkpt lat="47.90765" lon="7.10577">
        <ele>1340</ele>
        <time>2010-12-23T12:15:21.000Z</time>
      </trkpt>
      <trkpt lat="47.90765" lon="7.10576">
        <ele>1340</ele>
        <time>2010-12-23T12:15:22.000Z</time>
      </trkpt>
      <trkpt lat="47.90722" lon="7.10551">
        <ele>1339</ele>
        <time>2010-12-23T12:16:08.000Z</time>
      </trkpt>
      <trkpt lat="47.90722" lon="7.10551">
        <ele>1339</ele>
        <time>2010-12-23T12:16:09.000Z</time>
      </trkpt>
      <trkpt lat="47.90678" lon="7.10534">
        <ele>1340</ele>
        <time>2010-12-23T12:16:55.000Z</time>
      </trkpt>
      <trkpt lat="47.90676" lon="7.10534">
        <ele>1340</ele>
        <time>2010-12-23T12:16:56.000Z</time>
      </trkpt>
      <trkpt lat="47.90634" lon="7.10512">
        <ele>1331</ele>
        <time>2010-12-23T12:17:54.000Z</time>
      </trkpt>
      <trkpt lat="47.90633" lon="7.10511">
        <ele>1331</ele>
        <time>2010-12-23T12:17:55.000Z</time>
      </trkpt>
      <trkpt lat="47.90596" lon="7.10472">
        <ele>1336</ele>
        <time>2010-12-23T12:18:42.000Z</time>
      </trkpt>
      <trkpt lat="47.90594" lon="7.10472">
        <ele>1337</ele>
        <time>2010-12-23T12:18:43.000Z</time>
      </trkpt>
      <trkpt lat="47.90553" lon="7.10444">
        <ele>1341</ele>
        <time>2010-12-23T12:19:30.000Z</time>
      </trkpt>
      <trkpt lat="47.90552" lon="7.10443">
        <ele>1341</ele>
        <time>2010-12-23T12:19:31.000Z</time>
      </trkpt>
      <trkpt lat="47.90516" lon="7.10402">
        <ele>1340</ele>
        <time>2010-12-23T12:20:21.000Z</time>
      </trkpt>
      <trkpt lat="47.90515" lon="7.10401">
        <ele>1340</ele>
        <time>2010-12-23T12:20:22.000Z</time>
      </trkpt>
      <trkpt lat="47.90495" lon="7.1034">
        <ele>1342</ele>
        <time>2010-12-23T12:21:06.000Z</time>
      </trkpt>
      <trkpt lat="47.90495" lon="7.10339">
        <ele>1342</ele>
        <time>2010-12-23T12:21:07.000Z</time>
      </trkpt>
      <trkpt lat="47.90469" lon="7.10283">
        <ele>1347</ele>
        <time>2010-12-23T12:22:03.000Z</time>
      </trkpt>
      <trkpt lat="47.90469" lon="7.10282">
        <ele>1347</ele>
        <time>2010-12-23T12:22:04.000Z</time>
      </trkpt>
      <trkpt lat="47.90429" lon="7.10249">
        <ele>1352</ele>
        <time>2010-12-23T12:23:05.000Z</time>
      </trkpt>
      <trkpt lat="47.90429" lon="7.10249">
        <ele>1353</ele>
        <time>2010-12-23T12:23:06.000Z</time>
      </trkpt>
      <trkpt lat="47.90382" lon="7.10231">
        <ele>1352</ele>
        <time>2010-12-23T12:24:24.000Z</time>
      </trkpt>
      <trkpt lat="47.90382" lon="7.10231">
        <ele>1352</ele>
        <time>2010-12-23T12:24:25.000Z</time>
      </trkpt>
      <trkpt lat="47.90337" lon="7.1023">
        <ele>1368</ele>
        <time>2010-12-23T12:25:23.000Z</time>
      </trkpt>
      <trkpt lat="47.90336" lon="7.1023">
        <ele>1368</ele>
        <time>2010-12-23T12:25:24.000Z</time>
      </trkpt>
      <trkpt lat="47.90366" lon="7.1018">
        <ele>1383</ele>
        <time>2010-12-23T12:27:04.000Z</time>
      </trkpt>
      <trkpt lat="47.90367" lon="7.10179">
        <ele>1384</ele>
        <time>2010-12-23T12:27:05.000Z</time>
      </trkpt>
      <trkpt lat="47.90324" lon="7.10158">
        <ele>1398</ele>
        <time>2010-12-23T12:29:17.000Z</time>
      </trkpt>
      <trkpt lat="47.90323" lon="7.10157">
        <ele>1397</ele>
        <time>2010-12-23T12:29:18.000Z</time>
      </trkpt>
      <trkpt lat="47.90295" lon="7.10104">
        <ele>1400</ele>
        <time>2010-12-23T12:30:13.000Z</time>
      </trkpt>
      <trkpt lat="47.90295" lon="7.10103">
        <ele>1400</ele>
        <time>2010-12-23T12:30:14.000Z</time>
      </trkpt>
      <trkpt lat="47.90268" lon="7.10048">
        <ele>1404</ele>
        <time>2010-12-23T12:31:02.000Z</time>
      </trkpt>
      <trkpt lat="47.90267" lon="7.10047">
        <ele>1405</ele>
        <time>2010-12-23T12:31:03.000Z</time>
      </trkpt>
      <trkpt lat="47.90239" lon="7.09994">
        <ele>1408</ele>
        <time>2010-12-23T12:31:50.000Z</time>
      </trkpt>
      <trkpt lat="47.90238" lon="7.09993">
        <ele>1408</ele>
        <time>2010-12-23T12:31:51.000Z</time>
      </trkpt>
      <trkpt lat="47.90211" lon="7.09938">
        <ele>1415</ele>
        <time>2010-12-23T12:32:41.000Z</time>
      </trkpt>
      <trkpt lat="47.90211" lon="7.09937">
        <ele>1415</ele>
        <time>2010-12-23T12:32:42.000Z</time>
      </trkpt>
      <trkpt lat="47.90182" lon="7.09884">
        <ele>1419</ele>
        <time>2010-12-23T12:33:32.000Z</time>
      </trkpt>
      <trkpt lat="47.90182" lon="7.09884">
        <ele>1419</ele>
        <time>2010-12-23T12:33:33.000Z</time>
      </trkpt>
      <trkpt lat="47.90139" lon="7.09859">
        <ele>1420</ele>
        <time>2010-12-23T12:34:26.000Z</time>
      </trkpt>
      <trkpt lat="47.90139" lon="7.09858">
        <ele>1420</ele>
        <time>2010-12-23T12:34:27.000Z</time>
      </trkpt>
      <trkpt lat="47.90186" lon="7.09886">
        <ele>1431</ele>
        <time>2010-12-23T12:44:04.000Z</time>
      </trkpt>
      <trkpt lat="47.90188" lon="7.09891">
        <ele>1430</ele>
        <time>2010-12-23T12:44:06.000Z</time>
      </trkpt>
      <trkpt lat="47.90213" lon="7.09951">
        <ele>1410</ele>
        <time>2010-12-23T12:44:27.000Z</time>
      </trkpt>
      <trkpt lat="47.90214" lon="7.09955">
        <ele>1409</ele>
        <time>2010-12-23T12:44:28.000Z</time>
      </trkpt>
      <trkpt lat="47.90225" lon="7.10021">
        <ele>1402</ele>
        <time>2010-12-23T12:44:41.000Z</time>
      </trkpt>
      <trkpt lat="47.90227" lon="7.10028">
        <ele>1401</ele>
        <time>2010-12-23T12:44:42.000Z</time>
      </trkpt>
      <trkpt lat="47.90254" lon="7.10091">
        <ele>1394</ele>
        <time>2010-12-23T12:44:52.000Z</time>
      </trkpt>
      <trkpt lat="47.90257" lon="7.10098">
        <ele>1393</ele>
        <time>2010-12-23T12:44:53.000Z</time>
      </trkpt>
      <trkpt lat="47.9027" lon="7.10163">
        <ele>1386</ele>
        <time>2010-12-23T12:45:04.000Z</time>
      </trkpt>
      <trkpt lat="47.90272" lon="7.1017">
        <ele>1385</ele>
        <time>2010-12-23T12:45:05.000Z</time>
      </trkpt>
      <trkpt lat="47.90308" lon="7.10222">
        <ele>1377</ele>
        <time>2010-12-23T12:45:16.000Z</time>
      </trkpt>
      <trkpt lat="47.90311" lon="7.10223">
        <ele>1377</ele>
        <time>2010-12-23T12:45:17.000Z</time>
      </trkpt>
      <trkpt lat="47.90358" lon="7.10229">
        <ele>1372</ele>
        <time>2010-12-23T12:45:38.000Z</time>
      </trkpt>
      <trkpt lat="47.90359" lon="7.10229">
        <ele>1372</ele>
        <time>2010-12-23T12:45:39.000Z</time>
      </trkpt>
      <trkpt lat="47.90408" lon="7.10239">
        <ele>1371</ele>
        <time>2010-12-23T12:46:07.000Z</time>
      </trkpt>
      <trkpt lat="47.90412" lon="7.10242">
        <ele>1372</ele>
        <time>2010-12-23T12:46:08.000Z</time>
      </trkpt>
      <trkpt lat="47.90457" lon="7.10262">
        <ele>1357</ele>
        <time>2010-12-23T12:47:01.000Z</time>
      </trkpt>
      <trkpt lat="47.90459" lon="7.10265">
        <ele>1356</ele>
        <time>2010-12-23T12:47:02.000Z</time>
      </trkpt>
      <trkpt lat="47.90491" lon="7.10313">
        <ele>1343</ele>
        <time>2010-12-23T12:47:14.000Z</time>
      </trkpt>
      <trkpt lat="47.90492" lon="7.10315">
        <ele>1342</ele>
        <time>2010-12-23T12:47:15.000Z</time>
      </trkpt>
      <trkpt lat="47.90509" lon="7.10379">
        <ele>1337</ele>
        <time>2010-12-23T12:47:59.000Z</time>
      </trkpt>
      <trkpt lat="47.9051" lon="7.10381">
        <ele>1337</ele>
        <time>2010-12-23T12:48:00.000Z</time>
      </trkpt>
      <trkpt lat="47.90545" lon="7.10426">
        <ele>1342</ele>
        <time>2010-12-23T12:48:27.000Z</time>
      </trkpt>
      <trkpt lat="47.90547" lon="7.10427">
        <ele>1342</ele>
        <time>2010-12-23T12:48:28.000Z</time>
      </trkpt>
      <trkpt lat="47.90589" lon="7.1046">
        <ele>1343</ele>
        <time>2010-12-23T12:48:51.000Z</time>
      </trkpt>
      <trkpt lat="47.90591" lon="7.10462">
        <ele>1342</ele>
        <time>2010-12-23T12:48:52.000Z</time>
      </trkpt>
      <trkpt lat="47.9063" lon="7.10501">
        <ele>1331</ele>
        <time>2010-12-23T12:49:16.000Z</time>
      </trkpt>
      <trkpt lat="47.90632" lon="7.10503">
        <ele>1330</ele>
        <time>2010-12-23T12:49:17.000Z</time>
      </trkpt>
      <trkpt lat="47.90674" lon="7.10529">
        <ele>1333</ele>
        <time>2010-12-23T12:49:39.000Z</time>
      </trkpt>
      <trkpt lat="47.90676" lon="7.1053">
        <ele>1333</ele>
        <time>2010-12-23T12:49:40.000Z</time>
      </trkpt>
      <trkpt lat="47.9072" lon="7.10552">
        <ele>1346</ele>
        <time>2010-12-23T12:50:05.000Z</time>
      </trkpt>
      <trkpt lat="47.90723" lon="7.10553">
        <ele>1346</ele>
        <time>2010-12-23T12:50:06.000Z</time>
      </trkpt>
      <trkpt lat="47.90765" lon="7.10577">
        <ele>1342</ele>
        <time>2010-12-23T12:50:31.000Z</time>
      </trkpt>
      <trkpt lat="47.90766" lon="7.10577">
        <ele>1342</ele>
        <time>2010-12-23T12:50:32.000Z</time>
      </trkpt>
      <trkpt lat="47.90811" lon="7.10584">
        <ele>1321</ele>
        <time>2010-12-23T12:51:16.000Z</time>
      </trkpt>
      <trkpt lat="47.90816" lon="7.10584">
        <ele>1320</ele>
        <time>2010-12-23T12:51:17.000Z</time>
      </trkpt>
      <trkpt lat="47.90862" lon="7.10592">
        <ele>1319</ele>
        <time>2010-12-23T12:51:27.000Z</time>
      </trkpt>
      <trkpt lat="47.90866" lon="7.10593">
        <ele>1319</ele>
        <time>2010-12-23T12:51:28.000Z</time>
      </trkpt>
      <trkpt lat="47.90912" lon="7.10603">
        <ele>1315</ele>
        <time>2010-12-23T12:51:44.000Z</time>
      </trkpt>
      <trkpt lat="47.90917" lon="7.10603">
        <ele>1314</ele>
        <time>2010-12-23T12:51:45.000Z</time>
      </trkpt>
      <trkpt lat="47.90965" lon="7.10594">
        <ele>1307</ele>
        <time>2010-12-23T12:51:55.000Z</time>
      </trkpt>
      <trkpt lat="47.90969" lon="7.10598">
        <ele>1306</ele>
        <time>2010-12-23T12:51:56.000Z</time>
      </trkpt>
      <trkpt lat="47.91015" lon="7.106">
        <ele>1287</ele>
        <time>2010-12-23T12:52:15.000Z</time>
      </trkpt>
      <trkpt lat="47.91017" lon="7.10599">
        <ele>1287</ele>
        <time>2010-12-23T12:52:16.000Z</time>
      </trkpt>
      <trkpt lat="47.91066" lon="7.10601">
        <ele>1278</ele>
        <time>2010-12-23T12:52:29.000Z</time>
      </trkpt>
      <trkpt lat="47.9107" lon="7.106">
        <ele>1278</ele>
        <time>2010-12-23T12:52:30.000Z</time>
      </trkpt>
      <trkpt lat="47.91114" lon="7.10575">
        <ele>1271</ele>
        <time>2010-12-23T12:52:39.000Z</time>
      </trkpt>
      <trkpt lat="47.91118" lon="7.1057">
        <ele>1270</ele>
        <time>2010-12-23T12:52:40.000Z</time>
      </trkpt>
      <trkpt lat="47.91158" lon="7.10534">
        <ele>1264</ele>
        <time>2010-12-23T12:52:59.000Z</time>
      </trkpt>
      <trkpt lat="47.91161" lon="7.1053">
        <ele>1263</ele>
        <time>2010-12-23T12:53:00.000Z</time>
      </trkpt>
      <trkpt lat="47.91205" lon="7.105">
        <ele>1260</ele>
        <time>2010-12-23T12:53:13.000Z</time>
      </trkpt>
      <trkpt lat="47.91208" lon="7.10499">
        <ele>1260</ele>
        <time>2010-12-23T12:53:14.000Z</time>
      </trkpt>
      <trkpt lat="47.91252" lon="7.10486">
        <ele>1253</ele>
        <time>2010-12-23T12:53:37.000Z</time>
      </trkpt>
      <trkpt lat="47.91253" lon="7.10485">
        <ele>1253</ele>
        <time>2010-12-23T12:53:38.000Z</time>
      </trkpt>
      <trkpt lat="47.91297" lon="7.10513">
        <ele>1253</ele>
        <time>2010-12-23T12:53:54.000Z</time>
      </trkpt>
      <trkpt lat="47.91301" lon="7.10515">
        <ele>1253</ele>
        <time>2010-12-23T12:53:55.000Z</time>
      </trkpt>
      <trkpt lat="47.91345" lon="7.10508">
        <ele>1222</ele>
        <time>2010-12-23T12:54:23.000Z</time>
      </trkpt>
      <trkpt lat="47.91347" lon="7.10507">
        <ele>1222</ele>
        <time>2010-12-23T12:54:24.000Z</time>
      </trkpt>
      <trkpt lat="47.91391" lon="7.10491">
        <ele>1236</ele>
        <time>2010-12-23T12:54:54.000Z</time>
      </trkpt>
      <trkpt lat="47.91394" lon="7.1049">
        <ele>1236</ele>
        <time>2010-12-23T12:54:55.000Z</time>
      </trkpt>
      <trkpt lat="47.91439" lon="7.1048">
        <ele>1237</ele>
        <time>2010-12-23T12:55:09.000Z</time>
      </trkpt>
      <trkpt lat="47.91444" lon="7.10478">
        <ele>1237</ele>
        <time>2010-12-23T12:55:10.000Z</time>
      </trkpt>
      <trkpt lat="47.91489" lon="7.10459">
        <ele>1231</ele>
        <time>2010-12-23T12:55:25.000Z</time>
      </trkpt>
      <trkpt lat="47.9149" lon="7.10458">
        <ele>1230</ele>
        <time>2010-12-23T12:55:26.000Z</time>
      </trkpt>
      <trkpt lat="47.91533" lon="7.10431">
        <ele>1233</ele>
        <time>2010-12-23T12:55:53.000Z</time>
      </trkpt>
      <trkpt lat="47.91536" lon="7.1043">
        <ele>1233</ele>
        <time>2010-12-23T12:55:54.000Z</time>
      </trkpt>
      <trkpt lat="47.91578" lon="7.10406">
        <ele>1233</ele>
        <time>2010-12-23T12:56:14.000Z</time>
      </trkpt>
      <trkpt lat="47.91579" lon="7.10405">
        <ele>1233</ele>
        <time>2010-12-23T12:56:15.000Z</time>
      </trkpt>
      <trkpt lat="47.91622" lon="7.10381">
        <ele>1229</ele>
        <time>2010-12-23T12:56:36.000Z</time>
      </trkpt>
      <trkpt lat="47.91624" lon="7.1038">
        <ele>1228</ele>
        <time>2010-12-23T12:56:37.000Z</time>
      </trkpt>
      <trkpt lat="47.91663" lon="7.10348">
        <ele>1227</ele>
        <time>2010-12-23T12:56:57.000Z</time>
      </trkpt>
      <trkpt lat="47.91665" lon="7.10347">
        <ele>1227</ele>
        <time>2010-12-23T12:56:58.000Z</time>
      </trkpt>
      <trkpt lat="47.91706" lon="7.10319">
        <ele>1210</ele>
        <time>2010-12-23T12:57:41.000Z</time>
      </trkpt>
      <trkpt lat="47.91708" lon="7.1032">
        <ele>1209</ele>
        <time>2010-12-23T12:57:42.000Z</time>
      </trkpt>
      <trkpt lat="47.91748" lon="7.10284">
        <ele>1205</ele>
        <time>2010-12-23T12:59:02.000Z</time>
      </trkpt>
      <trkpt lat="47.91751" lon="7.10281">
        <ele>1205</ele>
        <time>2010-12-23T12:59:03.000Z</time>
      </trkpt>
      <trkpt lat="47.91796" lon="7.10273">
        <ele>1194</ele>
        <time>2010-12-23T12:59:34.000Z</time>
      </trkpt>
      <trkpt lat="47.91798" lon="7.10273">
        <ele>1194</ele>
        <time>2010-12-23T12:59:35.000Z</time>
      </trkpt>
      <trkpt lat="47.91838" lon="7.10239">
        <ele>1197</ele>
        <time>2010-12-23T13:00:02.000Z</time>
      </trkpt>
      <trkpt lat="47.91841" lon="7.10237">
        <ele>1196</ele>
        <time>2010-12-23T13:00:03.000Z</time>
      </trkpt>
      <trkpt lat="47.91884" lon="7.10261">
        <ele>1159</ele>
        <time>2010-12-23T13:01:03.000Z</time>
      </trkpt>
      <trkpt lat="47.91886" lon="7.10263">
        <ele>1158</ele>
        <time>2010-12-23T13:01:04.000Z</time>
      </trkpt>
      <trkpt lat="47.9193" lon="7.10248">
        <ele>1152</ele>
        <time>2010-12-23T13:01:17.000Z</time>
      </trkpt>
      <trkpt lat="47.91934" lon="7.10247">
        <ele>1151</ele>
        <time>2010-12-23T13:01:18.000Z</time>
      </trkpt>
      <trkpt lat="47.91976" lon="7.10214">
        <ele>1143</ele>
        <time>2010-12-23T13:01:30.000Z</time>
      </trkpt>
      <trkpt lat="47.91988" lon="7.10219">
        <ele>1138</ele>
        <time>2010-12-23T13:01:34.000Z</time>
      </trkpt>
      <trkpt lat="47.92028" lon="7.10184">
        <ele>1128</ele>
        <time>2010-12-23T13:01:46.000Z</time>
      </trkpt>
      <trkpt lat="47.92029" lon="7.10182">
        <ele>1127</ele>
        <time>2010-12-23T13:01:47.000Z</time>
      </trkpt>
      <trkpt lat="47.92089" lon="7.10174">
        <ele>1110</ele>
        <time>2010-12-23T13:02:11.000Z</time>
      </trkpt>
      <trkpt lat="47.92093" lon="7.10173">
        <ele>1108</ele>
        <time>2010-12-23T13:02:12.000Z</time>
      </trkpt>
      <trkpt lat="47.92137" lon="7.10155">
        <ele>1102</ele>
        <time>2010-12-23T13:02:21.000Z</time>
      </trkpt>
      <trkpt lat="47.92141" lon="7.10151">
        <ele>1101</ele>
        <time>2010-12-23T13:02:22.000Z</time>
      </trkpt>
      <trkpt lat="47.92187" lon="7.10144">
        <ele>1093</ele>
        <time>2010-12-23T13:02:34.000Z</time>
      </trkpt>
      <trkpt lat="47.92191" lon="7.10141">
        <ele>1093</ele>
        <time>2010-12-23T13:02:35.000Z</time>
      </trkpt>
      <trkpt lat="47.92236" lon="7.10129">
        <ele>1077</ele>
        <time>2010-12-23T13:02:52.000Z</time>
      </trkpt>
      <trkpt lat="47.92239" lon="7.1013">
        <ele>1075</ele>
        <time>2010-12-23T13:02:54.000Z</time>
      </trkpt>
      <trkpt lat="47.92276" lon="7.10172">
        <ele>1047</ele>
        <time>2010-12-23T13:03:25.000Z</time>
      </trkpt>
      <trkpt lat="47.9228" lon="7.10178">
        <ele>1047</ele>
        <time>2010-12-23T13:03:27.000Z</time>
      </trkpt>
      <trkpt lat="47.92321" lon="7.10207">
        <ele>1040</ele>
        <time>2010-12-23T13:03:45.000Z</time>
      </trkpt>
      <trkpt lat="47.92322" lon="7.1021">
        <ele>1039</ele>
        <time>2010-12-23T13:03:46.000Z</time>
      </trkpt>
      <trkpt lat="47.92351" lon="7.10263">
        <ele>1005</ele>
        <time>2010-12-23T13:04:34.000Z</time>
      </trkpt>
      <trkpt lat="47.92352" lon="7.10262">
        <ele>1005</ele>
        <time>2010-12-23T13:04:35.000Z</time>
      </trkpt>
      <trkpt lat="47.92392" lon="7.10297">
        <ele>993</ele>
        <time>2010-12-23T13:05:17.000Z</time>
      </trkpt>
      <trkpt lat="47.92393" lon="7.10298">
        <ele>993</ele>
        <time>2010-12-23T13:05:18.000Z</time>
      </trkpt>
      <trkpt lat="47.9244" lon="7.10289">
        <ele>983</ele>
        <time>2010-12-23T13:06:03.000Z</time>
      </trkpt>
      <trkpt lat="47.92443" lon="7.10288">
        <ele>983</ele>
        <time>2010-12-23T13:06:04.000Z</time>
      </trkpt>
      <trkpt lat="47.92471" lon="7.1034">
        <ele>963</ele>
        <time>2010-12-23T13:08:36.000Z</time>
      </trkpt>
      <trkpt lat="47.92472" lon="7.10339">
        <ele>963</ele>
        <time>2010-12-23T13:08:37.000Z</time>
      </trkpt>
      <trkpt lat="47.92517" lon="7.10319">
        <ele>962</ele>
        <time>2010-12-23T13:09:15.000Z</time>
      </trkpt>
      <trkpt lat="47.9252" lon="7.10319">
        <ele>962</ele>
        <time>2010-12-23T13:09:16.000Z</time>
      </trkpt>
      <trkpt lat="47.92558" lon="7.10357">
        <ele>951</ele>
        <time>2010-12-23T13:09:35.000Z</time>
      </trkpt>
      <trkpt lat="47.92559" lon="7.10358">
        <ele>950</ele>
        <time>2010-12-23T13:09:36.000Z</time>
      </trkpt>
      <trkpt lat="47.9259" lon="7.10411">
        <ele>934</ele>
        <time>2010-12-23T13:10:15.000Z</time>
      </trkpt>
      <trkpt lat="47.92591" lon="7.10412">
        <ele>933</ele>
        <time>2010-12-23T13:10:16.000Z</time>
      </trkpt>
      <trkpt lat="47.92629" lon="7.10448">
        <ele>928</ele>
        <time>2010-12-23T13:12:26.000Z</time>
      </trkpt>
      <trkpt lat="47.92629" lon="7.10448">
        <ele>929</ele>
        <time>2010-12-23T13:12:27.000Z</time>
      </trkpt>
      <trkpt lat="47.92669" lon="7.10481">
        <ele>914</ele>
        <time>2010-12-23T13:13:20.000Z</time>
      </trkpt>
      <trkpt lat="47.92669" lon="7.10482">
        <ele>913</ele>
        <time>2010-12-23T13:13:21.000Z</time>
      </trkpt>
      <trkpt lat="47.92711" lon="7.10512">
        <ele>919</ele>
        <time>2010-12-23T13:14:04.000Z</time>
      </trkpt>
      <trkpt lat="47.92712" lon="7.10513">
        <ele>918</ele>
        <time>2010-12-23T13:14:05.000Z</time>
      </trkpt>
      <trkpt lat="47.92757" lon="7.10537">
        <ele>933</ele>
        <time>2010-12-23T13:14:34.000Z</time>
      </trkpt>
      <trkpt lat="47.92759" lon="7.10539">
        <ele>935</ele>
        <time>2010-12-23T13:14:35.000Z</time>
      </trkpt>
      <trkpt lat="47.92803" lon="7.10553">
        <ele>896</ele>
        <time>2010-12-23T13:15:28.000Z</time>
      </trkpt>
      <trkpt lat="47.92803" lon="7.10552">
        <ele>895</ele>
        <time>2010-12-23T13:15:29.000Z</time>
      </trkpt>
      <trkpt lat="47.92838" lon="7.10596">
        <ele>913</ele>
        <time>2010-12-23T13:16:22.000Z</time>
      </trkpt>
      <trkpt lat="47.92838" lon="7.10597">
        <ele>912</ele>
        <time>2010-12-23T13:16:23.000Z</time>
      </trkpt>
      <trkpt lat="47.92876" lon="7.10637">
        <ele>886</ele>
        <time>2010-12-23T13:17:05.000Z</time>
      </trkpt>
      <trkpt lat="47.92877" lon="7.10638">
        <ele>886</ele>
        <time>2010-12-23T13:17:06.000Z</time>
      </trkpt>
      <trkpt lat="47.92899" lon="7.10697">
        <ele>885</ele>
        <time>2010-12-23T13:19:10.000Z</time>
      </trkpt>
      <trkpt lat="47.92899" lon="7.10697">
        <ele>885</ele>
        <time>2010-12-23T13:19:11.000Z</time>
      </trkpt>
      <trkpt lat="47.92944" lon="7.10728">
        <ele>874</ele>
        <time>2010-12-23T13:19:50.000Z</time>
      </trkpt>
      <trkpt lat="47.92945" lon="7.10729">
        <ele>875</ele>
        <time>2010-12-23T13:19:51.000Z</time>
      </trkpt>
      <trkpt lat="47.9298" lon="7.10772">
        <ele>874</ele>
        <time>2010-12-23T13:20:30.000Z</time>
      </trkpt>
      <trkpt lat="47.92981" lon="7.10774">
        <ele>873</ele>
        <time>2010-12-23T13:20:31.000Z</time>
      </trkpt>
      <trkpt lat="47.93014" lon="7.10821">
        <ele>845</ele>
        <time>2010-12-23T13:21:10.000Z</time>
      </trkpt>
      <trkpt lat="47.93015" lon="7.10823">
        <ele>843</ele>
        <time>2010-12-23T13:21:11.000Z</time>
      </trkpt>
      <trkpt lat="47.93054" lon="7.10859">
        <ele>832</ele>
        <time>2010-12-23T13:21:51.000Z</time>
      </trkpt>
      <trkpt lat="47.93056" lon="7.1086">
        <ele>833</ele>
        <time>2010-12-23T13:21:52.000Z</time>
      </trkpt>
      <trkpt lat="47.93092" lon="7.10902">
        <ele>851</ele>
        <time>2010-12-23T13:22:20.000Z</time>
      </trkpt>
      <trkpt lat="47.93092" lon="7.10903">
        <ele>851</ele>
        <time>2010-12-23T13:22:21.000Z</time>
      </trkpt>
      <trkpt lat="47.9312" lon="7.10957">
        <ele>849</ele>
        <time>2010-12-23T13:23:01.000Z</time>
      </trkpt>
      <trkpt lat="47.93121" lon="7.10959">
        <ele>849</ele>
        <time>2010-12-23T13:23:02.000Z</time>
      </trkpt>
      <trkpt lat="47.93148" lon="7.11014">
        <ele>836</ele>
        <time>2010-12-23T13:23:39.000Z</time>
      </trkpt>
      <trkpt lat="47.93148" lon="7.11016">
        <ele>835</ele>
        <time>2010-12-23T13:23:40.000Z</time>
      </trkpt>
      <trkpt lat="47.93171" lon="7.11076">
        <ele>832</ele>
        <time>2010-12-23T13:24:55.000Z</time>
      </trkpt>
      <trkpt lat="47.93171" lon="7.11078">
        <ele>831</ele>
        <time>2010-12-23T13:24:56.000Z</time>
      </trkpt>
      <trkpt lat="47.93209" lon="7.11117">
        <ele>823</ele>
        <time>2010-12-23T13:25:47.000Z</time>
      </trkpt>
      <trkpt lat="47.93211" lon="7.11117">
        <ele>824</ele>
        <time>2010-12-23T13:25:48.000Z</time>
      </trkpt>
      <trkpt lat="47.93255" lon="7.11132">
        <ele>832</ele>
        <time>2010-12-23T13:26:19.000Z</time>
      </trkpt>
      <trkpt lat="47.93256" lon="7.11133">
        <ele>833</ele>
        <time>2010-12-23T13:26:20.000Z</time>
      </trkpt>
      <trkpt lat="47.93301" lon="7.1115">
        <ele>826</ele>
        <time>2010-12-23T13:26:59.000Z</time>
      </trkpt>
      <trkpt lat="47.93301" lon="7.11151">
        <ele>826</ele>
        <time>2010-12-23T13:27:00.000Z</time>
      </trkpt>
      <trkpt lat="47.93328" lon="7.11206">
        <ele>821</ele>
        <time>2010-12-23T13:27:37.000Z</time>
      </trkpt>
      <trkpt lat="47.93328" lon="7.11208">
        <ele>820</ele>
        <time>2010-12-23T13:27:38.000Z</time>
      </trkpt>
      <trkpt lat="47.93362" lon="7.11255">
        <ele>811</ele>
        <time>2010-12-23T13:28:15.000Z</time>
      </trkpt>
      <trkpt lat="47.93363" lon="7.11255">
        <ele>810</ele>
        <time>2010-12-23T13:28:16.000Z</time>
      </trkpt>
      <trkpt lat="47.93395" lon="7.11304">
        <ele>788</ele>
        <time>2010-12-23T13:29:03.000Z</time>
      </trkpt>
      <trkpt lat="47.93396" lon="7.11306">
        <ele>788</ele>
        <time>2010-12-23T13:29:04.000Z</time>
      </trkpt>
      <trkpt lat="47.93436" lon="7.1134">
        <ele>786</ele>
        <time>2010-12-23T13:29:46.000Z</time>
      </trkpt>
      <trkpt lat="47.93437" lon="7.11341">
        <ele>786</ele>
        <time>2010-12-23T13:29:47.000Z</time>
      </trkpt>
      <trkpt lat="47.93482" lon="7.11342">
        <ele>766</ele>
        <time>2010-12-23T13:30:31.000Z</time>
      </trkpt>
      <trkpt lat="47.93483" lon="7.11342">
        <ele>766</ele>
        <time>2010-12-23T13:30:32.000Z</time>
      </trkpt>
      <trkpt lat="47.93526" lon="7.11365">
        <ele>763</ele>
        <time>2010-12-23T13:31:15.000Z</time>
      </trkpt>
      <trkpt lat="47.93527" lon="7.11366">
        <ele>763</ele>
        <time>2010-12-23T13:31:16.000Z</time>
      </trkpt>
      <trkpt lat="47.93556" lon="7.11419">
        <ele>743</ele>
        <time>2010-12-23T13:32:08.000Z</time>
      </trkpt>
      <trkpt lat="47.93557" lon="7.1142">
        <ele>743</ele>
        <time>2010-12-23T13:32:09.000Z</time>
      </trkpt>
      <trkpt lat="47.93591" lon="7.11464">
        <ele>737</ele>
        <time>2010-12-23T13:32:58.000Z</time>
      </trkpt>
      <trkpt lat="47.93591" lon="7.11465">
        <ele>737</ele>
        <time>2010-12-23T13:32:59.000Z</time>
      </trkpt>
      <trkpt lat="47.93555" lon="7.1151">
        <ele>717</ele>
        <time>2010-12-23T13:34:22.000Z</time>
      </trkpt>
      <trkpt lat="47.93555" lon="7.11511">
        <ele>717</ele>
        <time>2010-12-23T13:34:23.000Z</time>
      </trkpt>
      <trkpt lat="47.93516" lon="7.11545">
        <ele>709</ele>
        <time>2010-12-23T13:35:07.000Z</time>
      </trkpt>
      <trkpt lat="47.93515" lon="7.11546">
        <ele>709</ele>
        <time>2010-12-23T13:35:08.000Z</time>
      </trkpt>
      <trkpt lat="47.9347" lon="7.11557">
        <ele>702</ele>
        <time>2010-12-23T13:35:58.000Z</time>
      </trkpt>
      <trkpt lat="47.93469" lon="7.11558">
        <ele>702</ele>
        <time>2010-12-23T13:35:59.000Z</time>
      </trkpt>
      <trkpt lat="47.93425" lon="7.1158">
        <ele>684</ele>
        <time>2010-12-23T13:36:41.000Z</time>
      </trkpt>
      <trkpt lat="47.93425" lon="7.1158">
        <ele>683</ele>
        <time>2010-12-23T13:36:42.000Z</time>
      </trkpt>
      <trkpt lat="47.93379" lon="7.11578">
        <ele>669</ele>
        <time>2010-12-23T13:37:21.000Z</time>
      </trkpt>
      <trkpt lat="47.93378" lon="7.11577">
        <ele>669</ele>
        <time>2010-12-23T13:37:22.000Z</time>
      </trkpt>
      <trkpt lat="47.93332" lon="7.11571">
        <ele>657</ele>
        <time>2010-12-23T13:37:57.000Z</time>
      </trkpt>
      <trkpt lat="47.93331" lon="7.11571">
        <ele>657</ele>
        <time>2010-12-23T13:37:58.000Z</time>
      </trkpt>
      <trkpt lat="47.93286" lon="7.11565">
        <ele>662</ele>
        <time>2010-12-23T13:38:27.000Z</time>
      </trkpt>
      <trkpt lat="47.93284" lon="7.11565">
        <ele>662</ele>
        <time>2010-12-23T13:38:28.000Z</time>
      </trkpt>
      <trkpt lat="47.93239" lon="7.11564">
        <ele>663</ele>
        <time>2010-12-23T13:39:03.000Z</time>
      </trkpt>
      <trkpt lat="47.93238" lon="7.11564">
        <ele>663</ele>
        <time>2010-12-23T13:39:04.000Z</time>
      </trkpt>
      <trkpt lat="47.93193" lon="7.11566">
        <ele>664</ele>
        <time>2010-12-23T13:39:44.000Z</time>
      </trkpt>
      <trkpt lat="47.93192" lon="7.11567">
        <ele>664</ele>
        <time>2010-12-23T13:39:45.000Z</time>
      </trkpt>
      <trkpt lat="47.93147" lon="7.11576">
        <ele>677</ele>
        <time>2010-12-23T13:40:22.000Z</time>
      </trkpt>
      <trkpt lat="47.93146" lon="7.11576">
        <ele>676</ele>
        <time>2010-12-23T13:40:23.000Z</time>
      </trkpt>
      <trkpt lat="47.93102" lon="7.1156">
        <ele>657</ele>
        <time>2010-12-23T13:41:04.000Z</time>
      </trkpt>
      <trkpt lat="47.931" lon="7.1156">
        <ele>657</ele>
        <time>2010-12-23T13:41:05.000Z</time>
      </trkpt>
      <trkpt lat="47.93056" lon="7.11541">
        <ele>661</ele>
        <time>2010-12-23T13:41:43.000Z</time>
      </trkpt>
      <trkpt lat="47.93055" lon="7.11541">
        <ele>661</ele>
        <time>2010-12-23T13:41:44.000Z</time>
      </trkpt>
      <trkpt lat="47.9301" lon="7.11518">
        <ele>662</ele>
        <time>2010-12-23T13:42:28.000Z</time>
      </trkpt>
      <trkpt lat="47.93009" lon="7.11519">
        <ele>662</ele>
        <time>2010-12-23T13:42:29.000Z</time>
      </trkpt>
      <trkpt lat="47.92966" lon="7.11497">
        <ele>648</ele>
        <time>2010-12-23T13:43:16.000Z</time>
      </trkpt>
      <trkpt lat="47.92966" lon="7.11497">
        <ele>648</ele>
        <time>2010-12-23T13:43:17.000Z</time>
      </trkpt>
      <trkpt lat="47.92924" lon="7.11467">
        <ele>670</ele>
        <time>2010-12-23T13:43:45.000Z</time>
      </trkpt>
      <trkpt lat="47.92923" lon="7.11466">
        <ele>671</ele>
        <time>2010-12-23T13:43:46.000Z</time>
      </trkpt>
      <trkpt lat="47.92887" lon="7.11471">
        <ele>657</ele>
        <time>2010-12-23T13:45:17.000Z</time>
      </trkpt>
    </trkseg>
  </trk>
</gpx>